sensor_id;sensor_type;location;lat;lon;timestamp;pressure;altitude;pressure_sealevel;temperature;humidity
25420;BME280;13354;48.174;11.566;2024-02-14T00:01:44;96146.59;;;5.46;67.40
25420;BME280;13354;48.174;11.566;2024-02-14T00:04:09;96147.56;;;5.45;67.46
25420;BME280;13354;48.174;11.566;2024-02-14T00:06:36;96151.69;;;5.47;67.64
25420;BME280;13354;48.174;11.566;2024-02-14T00:09:02;96144.94;;;5.45;67.29
25420;BME280;13354;48.174;11.566;2024-02-14T00:11:28;96146.38;;;5.57;66.88
25420;BME280;13354;48.174;11.566;2024-02-14T00:13:53;96152.44;;;5.40;67.68
25420;BME280;13354;48.174;11.566;2024-02-14T00:16:21;96151.44;;;5.41;67.33
25420;BME280;13354;48.174;11.566;2024-02-14T00:18:46;96149.56;;;5.33;67.59
25420;BME280;13354;48.174;11.566;2024-02-14T00:21:12;96151.09;;;5.36;67.68
25420;BME280;13354;48.174;11.566;2024-02-14T00:23:38;96152.59;;;5.38;67.79
25420;BME280;13354;48.174;11.566;2024-02-14T00:26:03;96148.63;;;5.34;67.77
25420;BME280;13354;48.174;11.566;2024-02-14T00:28:29;96151.16;;;5.44;66.98
25420;BME280;13354;48.174;11.566;2024-02-14T00:30:54;96151.31;;;5.42;67.37
25420;BME280;13354;48.174;11.566;2024-02-14T00:33:19;96147.63;;;5.35;67.37
25420;BME280;13354;48.174;11.566;2024-02-14T00:35:47;96149.16;;;5.38;66.95
25420;BME280;13354;48.174;11.566;2024-02-14T00:38:12;96150.38;;;5.33;66.99
25420;BME280;13354;48.174;11.566;2024-02-14T00:40:38;96148.91;;;5.31;67.41
25420;BME280;13354;48.174;11.566;2024-02-14T00:43:03;96159.50;;;5.39;67.25
25420;BME280;13354;48.174;11.566;2024-02-14T00:45:29;96154.28;;;5.29;67.39
25420;BME280;13354;48.174;11.566;2024-02-14T00:47:54;96152.94;;;5.25;67.77
25420;BME280;13354;48.174;11.566;2024-02-14T00:50:19;96161.66;;;5.44;67.33
25420;BME280;13354;48.174;11.566;2024-02-14T00:52:45;96162.66;;;5.43;67.80
25420;BME280;13354;48.174;11.566;2024-02-14T00:55:10;96159.03;;;5.44;67.45
25420;BME280;13354;48.174;11.566;2024-02-14T00:57:36;96156.16;;;5.37;68.06
25420;BME280;13354;48.174;11.566;2024-02-14T01:00:02;96153.13;;;5.42;67.75
25420;BME280;13354;48.174;11.566;2024-02-14T01:02:29;96154.84;;;5.51;67.53
25420;BME280;13354;48.174;11.566;2024-02-14T01:04:55;96154.59;;;5.44;67.35
25420;BME280;13354;48.174;11.566;2024-02-14T01:07:20;96151.63;;;5.39;67.19
25420;BME280;13354;48.174;11.566;2024-02-14T01:09:46;96167.00;;;5.52;67.28
25420;BME280;13354;48.174;11.566;2024-02-14T01:12:11;96165.56;;;5.40;67.31
25420;BME280;13354;48.174;11.566;2024-02-14T01:14:37;96163.13;;;5.56;66.95
25420;BME280;13354;48.174;11.566;2024-02-14T01:17:02;96156.19;;;5.55;66.75
25420;BME280;13354;48.174;11.566;2024-02-14T01:19:29;96161.53;;;5.63;66.51
25420;BME280;13354;48.174;11.566;2024-02-14T01:21:55;96159.22;;;5.60;66.15
25420;BME280;13354;48.174;11.566;2024-02-14T01:24:22;96163.97;;;5.74;66.18
25420;BME280;13354;48.174;11.566;2024-02-14T01:26:48;96160.72;;;5.63;65.83
25420;BME280;13354;48.174;11.566;2024-02-14T01:29:14;96162.59;;;5.52;66.30
25420;BME280;13354;48.174;11.566;2024-02-14T01:31:41;96156.50;;;5.70;65.87
25420;BME280;13354;48.174;11.566;2024-02-14T01:34:07;96157.94;;;5.64;65.91
25420;BME280;13354;48.174;11.566;2024-02-14T01:36:32;96156.59;;;5.60;66.04
25420;BME280;13354;48.174;11.566;2024-02-14T01:38:58;96156.88;;;5.57;66.05
25420;BME280;13354;48.174;11.566;2024-02-14T01:41:23;96160.41;;;5.66;65.84
25420;BME280;13354;48.174;11.566;2024-02-14T01:43:49;96160.91;;;5.51;66.73
25420;BME280;13354;48.174;11.566;2024-02-14T01:46:15;96156.81;;;5.67;66.01
25420;BME280;13354;48.174;11.566;2024-02-14T01:48:41;96163.63;;;5.60;66.10
25420;BME280;13354;48.174;11.566;2024-02-14T01:51:08;96161.00;;;5.60;66.00
25420;BME280;13354;48.174;11.566;2024-02-14T01:53:36;96156.50;;;5.70;66.01
25420;BME280;13354;48.174;11.566;2024-02-14T01:56:02;96164.47;;;5.78;65.04
25420;BME280;13354;48.174;11.566;2024-02-14T01:58:30;96166.66;;;5.65;65.34
25420;BME280;13354;48.174;11.566;2024-02-14T02:00:55;96165.81;;;5.64;65.29
25420;BME280;13354;48.174;11.566;2024-02-14T02:03:25;96164.31;;;5.62;65.39
25420;BME280;13354;48.174;11.566;2024-02-14T02:05:51;96165.44;;;5.59;65.21
25420;BME280;13354;48.174;11.566;2024-02-14T02:08:17;96170.84;;;5.57;65.60
25420;BME280;13354;48.174;11.566;2024-02-14T02:10:43;96168.59;;;5.63;65.60
25420;BME280;13354;48.174;11.566;2024-02-14T02:13:08;96166.13;;;5.61;65.43
25420;BME280;13354;48.174;11.566;2024-02-14T02:15:35;96167.84;;;5.70;65.30
25420;BME280;13354;48.174;11.566;2024-02-14T02:18:01;96163.97;;;5.74;64.74
25420;BME280;13354;48.174;11.566;2024-02-14T02:20:27;96171.22;;;5.63;64.70
25420;BME280;13354;48.174;11.566;2024-02-14T02:22:53;96171.66;;;5.58;64.78
25420;BME280;13354;48.174;11.566;2024-02-14T02:25:18;96171.09;;;5.64;65.23
25420;BME280;13354;48.174;11.566;2024-02-14T02:27:48;96174.13;;;5.60;64.84
25420;BME280;13354;48.174;11.566;2024-02-14T02:30:14;96173.41;;;5.67;64.43
25420;BME280;13354;48.174;11.566;2024-02-14T02:32:39;96173.47;;;5.57;64.39
25420;BME280;13354;48.174;11.566;2024-02-14T02:35:04;96172.78;;;5.55;64.75
25420;BME280;13354;48.174;11.566;2024-02-14T02:37:30;96170.78;;;5.49;65.20
25420;BME280;13354;48.174;11.566;2024-02-14T02:39:56;96172.88;;;5.46;64.69
25420;BME280;13354;48.174;11.566;2024-02-14T02:42:22;96165.50;;;5.49;64.85
25420;BME280;13354;48.174;11.566;2024-02-14T02:44:50;96173.00;;;5.44;65.16
25420;BME280;13354;48.174;11.566;2024-02-14T02:47:15;96161.38;;;5.47;65.18
25420;BME280;13354;48.174;11.566;2024-02-14T02:49:42;96170.47;;;5.52;64.69
25420;BME280;13354;48.174;11.566;2024-02-14T02:52:12;96172.03;;;5.45;64.81
25420;BME280;13354;48.174;11.566;2024-02-14T02:54:37;96174.50;;;5.47;64.75
25420;BME280;13354;48.174;11.566;2024-02-14T02:57:09;96164.28;;;5.44;65.11
25420;BME280;13354;48.174;11.566;2024-02-14T02:59:35;96174.78;;;5.44;64.99
25420;BME280;13354;48.174;11.566;2024-02-14T03:02:01;96173.81;;;5.27;65.53
25420;BME280;13354;48.174;11.566;2024-02-14T03:04:27;96171.94;;;5.37;65.45
25420;BME280;13354;48.174;11.566;2024-02-14T03:06:52;96169.63;;;5.34;65.28
25420;BME280;13354;48.174;11.566;2024-02-14T03:09:18;96167.00;;;5.34;65.33
25420;BME280;13354;48.174;11.566;2024-02-14T03:11:47;96167.00;;;5.34;65.74
25420;BME280;13354;48.174;11.566;2024-02-14T03:14:15;96166.63;;;5.47;65.12
25420;BME280;13354;48.174;11.566;2024-02-14T03:16:40;96180.50;;;5.39;65.21
25420;BME280;13354;48.174;11.566;2024-02-14T03:19:06;96181.28;;;5.22;65.87
25420;BME280;13354;48.174;11.566;2024-02-14T03:21:31;96187.69;;;5.37;65.31
25420;BME280;13354;48.174;11.566;2024-02-14T03:24:01;96183.66;;;5.43;65.50
25420;BME280;13354;48.174;11.566;2024-02-14T03:26:28;96176.66;;;5.33;65.48
25420;BME280;13354;48.174;11.566;2024-02-14T03:28:53;96178.03;;;5.38;65.37
25420;BME280;13354;48.174;11.566;2024-02-14T03:31:19;96177.19;;;5.37;65.95
25420;BME280;13354;48.174;11.566;2024-02-14T03:33:45;96166.84;;;5.36;66.01
25420;BME280;13354;48.174;11.566;2024-02-14T03:36:11;96173.34;;;5.31;66.27
25420;BME280;13354;48.174;11.566;2024-02-14T03:38:36;96175.28;;;5.29;66.93
25420;BME280;13354;48.174;11.566;2024-02-14T03:41:04;96173.41;;;5.22;66.67
25420;BME280;13354;48.174;11.566;2024-02-14T03:43:30;96184.19;;;5.19;66.40
25420;BME280;13354;48.174;11.566;2024-02-14T03:45:57;96176.84;;;5.22;66.22
25420;BME280;13354;48.174;11.566;2024-02-14T03:48:22;96180.09;;;5.16;66.28
25420;BME280;13354;48.174;11.566;2024-02-14T03:50:48;96182.72;;;5.16;66.86
25420;BME280;13354;48.174;11.566;2024-02-14T03:53:13;96183.28;;;5.10;65.92
25420;BME280;13354;48.174;11.566;2024-02-14T03:55:40;96183.28;;;5.10;66.59
25420;BME280;13354;48.174;11.566;2024-02-14T03:58:05;96178.84;;;5.11;66.01
25420;BME280;13354;48.174;11.566;2024-02-14T04:00:31;96177.88;;;5.12;65.96
25420;BME280;13354;48.174;11.566;2024-02-14T04:02:57;96182.09;;;4.95;65.94
25420;BME280;13354;48.174;11.566;2024-02-14T04:05:25;96186.00;;;4.91;66.07
25420;BME280;13354;48.174;11.566;2024-02-14T04:07:52;96184.72;;;4.95;66.08
25420;BME280;13354;48.174;11.566;2024-02-14T04:10:19;96180.94;;;5.07;65.94
25420;BME280;13354;48.174;11.566;2024-02-14T04:12:45;96173.41;;;4.94;66.11
25420;BME280;13354;48.174;11.566;2024-02-14T04:15:10;96180.47;;;4.94;65.90
25420;BME280;13354;48.174;11.566;2024-02-14T04:17:36;96184.19;;;4.91;65.94
25420;BME280;13354;48.174;11.566;2024-02-14T04:20:02;96183.22;;;4.92;65.49
25420;BME280;13354;48.174;11.566;2024-02-14T04:22:27;96177.03;;;4.83;65.71
25420;BME280;13354;48.174;11.566;2024-02-14T04:24:53;96182.13;;;4.85;65.86
25420;BME280;13354;48.174;11.566;2024-02-14T04:27:18;96180.50;;;4.84;65.93
25420;BME280;13354;48.174;11.566;2024-02-14T04:29:47;96173.59;;;4.83;66.10
25420;BME280;13354;48.174;11.566;2024-02-14T04:32:13;96177.31;;;4.80;66.39
25420;BME280;13354;48.174;11.566;2024-02-14T04:34:38;96175.13;;;4.76;66.15
25420;BME280;13354;48.174;11.566;2024-02-14T04:37:05;96181.75;;;4.80;65.95
25420;BME280;13354;48.174;11.566;2024-02-14T04:39:36;96185.44;;;4.87;65.75
25420;BME280;13354;48.174;11.566;2024-02-14T04:42:04;96187.09;;;4.88;66.09
25420;BME280;13354;48.174;11.566;2024-02-14T04:44:33;96181.47;;;4.83;65.93
25420;BME280;13354;48.174;11.566;2024-02-14T04:46:59;96184.22;;;4.81;65.81
25420;BME280;13354;48.174;11.566;2024-02-14T04:49:25;96183.09;;;4.94;65.11
25420;BME280;13354;48.174;11.566;2024-02-14T04:51:54;96180.75;;;4.91;65.09
25420;BME280;13354;48.174;11.566;2024-02-14T04:54:19;96170.31;;;5.08;65.29
25420;BME280;13354;48.174;11.566;2024-02-14T04:56:44;96175.06;;;4.95;65.18
25420;BME280;13354;48.174;11.566;2024-02-14T04:59:12;96175.97;;;5.04;65.48
25420;BME280;13354;48.174;11.566;2024-02-14T05:01:38;96176.66;;;5.06;65.13
25420;BME280;13354;48.174;11.566;2024-02-14T05:04:05;96173.66;;;5.01;64.47
25420;BME280;13354;48.174;11.566;2024-02-14T05:06:31;96168.25;;;5.02;64.90
25420;BME280;13354;48.174;11.566;2024-02-14T05:08:57;96171.88;;;5.01;64.71
25420;BME280;13354;48.174;11.566;2024-02-14T05:11:22;96165.19;;;5.07;64.50
25420;BME280;13354;48.174;11.566;2024-02-14T05:13:48;96166.34;;;5.04;63.87
25420;BME280;13354;48.174;11.566;2024-02-14T05:16:17;96170.44;;;5.07;64.10
25420;BME280;13354;48.174;11.566;2024-02-14T05:18:43;96166.84;;;5.08;63.93
25420;BME280;13354;48.174;11.566;2024-02-14T05:21:08;96155.19;;;5.20;63.79
25420;BME280;13354;48.174;11.566;2024-02-14T05:23:34;96160.28;;;5.22;63.47
25420;BME280;13354;48.174;11.566;2024-02-14T05:26:02;96161.84;;;5.15;63.70
25420;BME280;13354;48.174;11.566;2024-02-14T05:28:28;96153.38;;;5.21;63.42
25420;BME280;13354;48.174;11.566;2024-02-14T05:30:54;96150.59;;;5.22;63.56
25420;BME280;13354;48.174;11.566;2024-02-14T05:33:20;96160.44;;;5.20;63.49
25420;BME280;13354;48.174;11.566;2024-02-14T05:35:48;96167.09;;;5.15;63.59
25420;BME280;13354;48.174;11.566;2024-02-14T05:38:13;96172.75;;;5.20;63.41
25420;BME280;13354;48.174;11.566;2024-02-14T05:40:40;96174.22;;;5.22;63.89
25420;BME280;13354;48.174;11.566;2024-02-14T05:43:05;96174.22;;;5.22;63.71
25420;BME280;13354;48.174;11.566;2024-02-14T05:45:32;96172.88;;;5.18;63.91
25420;BME280;13354;48.174;11.566;2024-02-14T05:47:58;96174.09;;;5.24;63.47
25420;BME280;13354;48.174;11.566;2024-02-14T05:50:23;96181.44;;;5.20;63.52
25420;BME280;13354;48.174;11.566;2024-02-14T05:52:49;96180.00;;;5.26;63.08
25420;BME280;13354;48.174;11.566;2024-02-14T05:55:14;96179.78;;;5.19;63.22
25420;BME280;13354;48.174;11.566;2024-02-14T05:57:40;96173.41;;;5.22;62.82
25420;BME280;13354;48.174;11.566;2024-02-14T06:00:06;96184.97;;;5.29;63.27
25420;BME280;13354;48.174;11.566;2024-02-14T06:02:31;96183.03;;;5.31;62.89
25420;BME280;13354;48.174;11.566;2024-02-14T06:04:57;96183.03;;;5.31;63.30
25420;BME280;13354;48.174;11.566;2024-02-14T06:07:22;96184.41;;;5.35;62.80
25420;BME280;13354;48.174;11.566;2024-02-14T06:09:47;96184.78;;;5.40;62.56
25420;BME280;13354;48.174;11.566;2024-02-14T06:12:12;96181.41;;;5.48;62.75
25420;BME280;13354;48.174;11.566;2024-02-14T06:14:38;96183.75;;;5.51;62.67
25420;BME280;13354;48.174;11.566;2024-02-14T06:17:04;96192.97;;;5.55;62.50
25420;BME280;13354;48.174;11.566;2024-02-14T06:19:29;96191.56;;;5.61;61.92
25420;BME280;13354;48.174;11.566;2024-02-14T06:21:56;96192.22;;;5.63;61.97
25420;BME280;13354;48.174;11.566;2024-02-14T06:24:21;96187.38;;;5.68;61.84
25420;BME280;13354;48.174;11.566;2024-02-14T06:26:46;96191.59;;;5.78;62.13
25420;BME280;13354;48.174;11.566;2024-02-14T06:29:12;96191.25;;;5.81;61.52
25420;BME280;13354;48.174;11.566;2024-02-14T06:31:37;96198.84;;;5.85;61.20
25420;BME280;13354;48.174;11.566;2024-02-14T06:34:02;96196.69;;;5.80;61.80
25420;BME280;13354;48.174;11.566;2024-02-14T06:36:28;96192.94;;;5.82;61.78
25420;BME280;13354;48.174;11.566;2024-02-14T06:38:53;96203.97;;;5.86;61.55
25420;BME280;13354;48.174;11.566;2024-02-14T06:41:18;96207.22;;;5.98;61.32
25420;BME280;13354;48.174;11.566;2024-02-14T06:43:45;96207.78;;;5.92;61.92
25420;BME280;13354;48.174;11.566;2024-02-14T06:46:11;96205.72;;;5.95;62.25
25420;BME280;13354;48.174;11.566;2024-02-14T06:48:36;96205.94;;;6.02;62.36
25420;BME280;13354;48.174;11.566;2024-02-14T06:51:01;96200.75;;;6.10;61.43
25420;BME280;13354;48.174;11.566;2024-02-14T06:53:27;96195.19;;;6.13;61.33
25420;BME280;13354;48.174;11.566;2024-02-14T06:55:52;96193.91;;;6.17;60.76
25420;BME280;13354;48.174;11.566;2024-02-14T06:58:18;96197.75;;;6.23;60.75
25420;BME280;13354;48.174;11.566;2024-02-14T07:00:43;96197.53;;;6.16;61.20
25420;BME280;13354;48.174;11.566;2024-02-14T07:03:09;96204.81;;;6.22;60.92
25420;BME280;13354;48.174;11.566;2024-02-14T07:05:35;96201.09;;;6.33;61.00
25420;BME280;13354;48.174;11.566;2024-02-14T07:08:00;96206.34;;;6.33;60.72
25420;BME280;13354;48.174;11.566;2024-02-14T07:10:26;96210.28;;;6.29;61.27
25420;BME280;13354;48.174;11.566;2024-02-14T07:12:52;96217.56;;;6.35;61.58
25420;BME280;13354;48.174;11.566;2024-02-14T07:15:17;96215.69;;;6.45;61.81
25420;BME280;13354;48.174;11.566;2024-02-14T07:17:42;96222.75;;;6.45;61.23
25420;BME280;13354;48.174;11.566;2024-02-14T07:20:08;96222.28;;;6.49;60.70
25420;BME280;13354;48.174;11.566;2024-02-14T07:22:36;96224.59;;;6.52;60.58
25420;BME280;13354;48.174;11.566;2024-02-14T07:25:02;96230.75;;;6.61;60.58
25420;BME280;13354;48.174;11.566;2024-02-14T07:27:30;96234.41;;;6.68;60.04
25420;BME280;13354;48.174;11.566;2024-02-14T07:29:55;96232.78;;;6.67;59.79
25420;BME280;13354;48.174;11.566;2024-02-14T07:32:20;96236.88;;;6.70;59.68
25420;BME280;13354;48.174;11.566;2024-02-14T07:34:46;96236.13;;;6.77;59.16
25420;BME280;13354;48.174;11.566;2024-02-14T07:37:12;96235.66;;;6.82;58.60
25420;BME280;13354;48.174;11.566;2024-02-14T07:39:37;96243.25;;;6.85;58.49
25420;BME280;13354;48.174;11.566;2024-02-14T07:42:03;96241.28;;;6.87;58.65
25420;BME280;13354;48.174;11.566;2024-02-14T07:44:29;96249.34;;;6.86;57.83
25420;BME280;13354;48.174;11.566;2024-02-14T07:46:54;96248.19;;;6.88;58.09
25420;BME280;13354;48.174;11.566;2024-02-14T07:49:19;96250.81;;;6.88;57.43
25420;BME280;13354;48.174;11.566;2024-02-14T07:51:45;96259.63;;;6.97;57.85
25420;BME280;13354;48.174;11.566;2024-02-14T07:54:10;96261.94;;;7.00;57.71
25420;BME280;13354;48.174;11.566;2024-02-14T07:56:36;96259.75;;;6.95;57.81
25420;BME280;13354;48.174;11.566;2024-02-14T07:59:01;96259.81;;;7.04;57.50
25420;BME280;13354;48.174;11.566;2024-02-14T08:01:27;96258.56;;;7.16;57.07
25420;BME280;13354;48.174;11.566;2024-02-14T08:03:53;96262.88;;;7.25;55.72
25420;BME280;13354;48.174;11.566;2024-02-14T08:06:19;96258.06;;;7.12;56.12
25420;BME280;13354;48.174;11.566;2024-02-14T08:08:45;96263.09;;;7.06;56.15
25420;BME280;13354;48.174;11.566;2024-02-14T08:11:10;96258.16;;;7.02;56.10
25420;BME280;13354;48.174;11.566;2024-02-14T08:13:36;96259.19;;;7.10;56.19
25420;BME280;13354;48.174;11.566;2024-02-14T08:16:05;96259.19;;;7.10;56.33
25420;BME280;13354;48.174;11.566;2024-02-14T08:18:30;96260.38;;;7.15;56.19
25420;BME280;13354;48.174;11.566;2024-02-14T08:20:56;96267.13;;;7.18;56.32
25420;BME280;13354;48.174;11.566;2024-02-14T08:23:21;96267.75;;;7.12;56.31
25420;BME280;13354;48.174;11.566;2024-02-14T08:25:46;96266.41;;;7.34;56.72
25420;BME280;13354;48.174;11.566;2024-02-14T08:28:14;96270.59;;;7.18;57.73
25420;BME280;13354;48.174;11.566;2024-02-14T08:30:39;96271.25;;;7.20;57.97
25420;BME280;13354;48.174;11.566;2024-02-14T08:33:04;96266.16;;;7.19;57.58
25420;BME280;13354;48.174;11.566;2024-02-14T08:35:30;96271.56;;;7.17;57.95
25420;BME280;13354;48.174;11.566;2024-02-14T08:37:55;96266.09;;;7.37;57.61
25420;BME280;13354;48.174;11.566;2024-02-14T08:40:21;96273.31;;;7.35;57.79
25420;BME280;13354;48.174;11.566;2024-02-14T08:42:46;96262.53;;;7.54;57.81
25420;BME280;13354;48.174;11.566;2024-02-14T08:45:12;96268.47;;;7.56;57.37
25420;BME280;13354;48.174;11.566;2024-02-14T08:47:37;96259.81;;;7.80;57.13
25420;BME280;13354;48.174;11.566;2024-02-14T08:50:04;96253.78;;;7.96;56.04
25420;BME280;13354;48.174;11.566;2024-02-14T08:52:29;96252.34;;;8.18;55.53
25420;BME280;13354;48.174;11.566;2024-02-14T08:54:55;96258.94;;;8.22;55.10
25420;BME280;13354;48.174;11.566;2024-02-14T08:57:20;96249.69;;;8.26;55.09
25420;BME280;13354;48.174;11.566;2024-02-14T08:59:46;96254.97;;;8.26;55.35
25420;BME280;13354;48.174;11.566;2024-02-14T09:02:14;96253.53;;;8.48;54.55
25420;BME280;13354;48.174;11.566;2024-02-14T09:04:39;96264.41;;;8.61;54.16
25420;BME280;13354;48.174;11.566;2024-02-14T09:07:06;96265.41;;;8.68;53.78
25420;BME280;13354;48.174;11.566;2024-02-14T09:09:32;96266.06;;;8.79;53.42
25420;BME280;13354;48.174;11.566;2024-02-14T09:11:58;96262.84;;;9.24;52.88
25420;BME280;13354;48.174;11.566;2024-02-14T09:14:28;96258.44;;;9.56;51.81
25420;BME280;13354;48.174;11.566;2024-02-14T09:16:53;96252.16;;;9.65;50.92
25420;BME280;13354;48.174;11.566;2024-02-14T09:19:19;96251.97;;;9.66;51.51
25420;BME280;13354;48.174;11.566;2024-02-14T09:21:44;96250.00;;;9.68;51.48
25420;BME280;13354;48.174;11.566;2024-02-14T09:24:10;96250.91;;;9.84;51.05
25420;BME280;13354;48.174;11.566;2024-02-14T09:26:36;96249.63;;;10.03;50.33
25420;BME280;13354;48.174;11.566;2024-02-14T09:29:03;96243.47;;;10.10;50.24
25420;BME280;13354;48.174;11.566;2024-02-14T09:31:29;96249.53;;;10.19;50.01
25420;BME280;13354;48.174;11.566;2024-02-14T09:33:54;96255.53;;;10.13;50.14
25420;BME280;13354;48.174;11.566;2024-02-14T09:36:22;96251.78;;;10.30;49.76
25420;BME280;13354;48.174;11.566;2024-02-14T09:38:48;96254.31;;;10.24;50.05
25420;BME280;13354;48.174;11.566;2024-02-14T09:41:36;96248.06;;;10.16;49.74
25420;BME280;13354;48.174;11.566;2024-02-14T09:44:02;96244.94;;;10.13;49.20
25420;BME280;13354;48.174;11.566;2024-02-14T09:46:28;96246.25;;;10.17;48.98
25420;BME280;13354;48.174;11.566;2024-02-14T09:48:56;96259.06;;;10.05;49.79
25420;BME280;13354;48.174;11.566;2024-02-14T09:51:23;96258.34;;;10.11;49.63
25420;BME280;13354;48.174;11.566;2024-02-14T09:53:50;96246.81;;;10.35;49.65
25420;BME280;13354;48.174;11.566;2024-02-14T09:56:16;96255.81;;;10.18;50.09
25420;BME280;13354;48.174;11.566;2024-02-14T09:58:45;96249.78;;;10.09;50.49
25420;BME280;13354;48.174;11.566;2024-02-14T10:01:15;96255.03;;;10.40;50.24
25420;BME280;13354;48.174;11.566;2024-02-14T10:03:40;96246.69;;;10.29;50.30
25420;BME280;13354;48.174;11.566;2024-02-14T10:06:06;96251.84;;;10.45;49.89
25420;BME280;13354;48.174;11.566;2024-02-14T10:08:32;96248.97;;;10.55;49.35
25420;BME280;13354;48.174;11.566;2024-02-14T10:10:57;96253.47;;;10.54;49.43
25420;BME280;13354;48.174;11.566;2024-02-14T10:13:27;96244.81;;;10.60;49.25
25420;BME280;13354;48.174;11.566;2024-02-14T10:15:53;96245.13;;;10.80;48.40
25420;BME280;13354;48.174;11.566;2024-02-14T10:18:20;96244.53;;;11.08;48.42
25420;BME280;13354;48.174;11.566;2024-02-14T10:20:55;96233.56;;;11.41;47.78
25420;BME280;13354;48.174;11.566;2024-02-14T10:23:21;96228.47;;;11.54;47.62
25420;BME280;13354;48.174;11.566;2024-02-14T10:25:49;96226.50;;;11.77;47.04
25420;BME280;13354;48.174;11.566;2024-02-14T10:28:15;96230.38;;;11.90;46.73
25420;BME280;13354;48.174;11.566;2024-02-14T10:30:45;96223.19;;;12.05;46.45
25420;BME280;13354;48.174;11.566;2024-02-14T10:33:10;96224.78;;;12.42;45.80
25420;BME280;13354;48.174;11.566;2024-02-14T10:35:37;96229.06;;;12.43;45.68
25420;BME280;13354;48.174;11.566;2024-02-14T10:38:04;96225.25;;;12.74;45.15
25420;BME280;13354;48.174;11.566;2024-02-14T10:40:32;96227.84;;;12.89;45.27
25420;BME280;13354;48.174;11.566;2024-02-14T10:42:58;96230.88;;;13.14;44.65
25420;BME280;13354;48.174;11.566;2024-02-14T10:45:24;96229.69;;;13.92;43.25
25420;BME280;13354;48.174;11.566;2024-02-14T10:47:53;96225.09;;;14.34;42.60
25420;BME280;13354;48.174;11.566;2024-02-14T10:50:21;96229.06;;;14.98;41.67
25420;BME280;13354;48.174;11.566;2024-02-14T10:52:48;96224.03;;;15.68;40.97
25420;BME280;13354;48.174;11.566;2024-02-14T10:55:15;96215.41;;;16.17;39.60
25420;BME280;13354;48.174;11.566;2024-02-14T10:57:42;96214.97;;;15.76;39.59
25420;BME280;13354;48.174;11.566;2024-02-14T11:00:10;96219.13;;;15.52;40.43
25420;BME280;13354;48.174;11.566;2024-02-14T11:02:39;96223.94;;;15.03;40.44
25420;BME280;13354;48.174;11.566;2024-02-14T11:05:05;96224.38;;;14.80;41.71
25420;BME280;13354;48.174;11.566;2024-02-14T11:07:32;96221.44;;;14.48;42.03
25420;BME280;13354;48.174;11.566;2024-02-14T11:10:16;96219.06;;;14.06;43.07
25420;BME280;13354;48.174;11.566;2024-02-14T11:12:42;96220.13;;;14.11;43.10
25420;BME280;13354;48.174;11.566;2024-02-14T11:15:11;96222.28;;;13.88;43.33
25420;BME280;13354;48.174;11.566;2024-02-14T11:17:38;96226.13;;;13.72;44.25
25420;BME280;13354;48.174;11.566;2024-02-14T11:20:20;96220.63;;;13.73;44.05
25420;BME280;13354;48.174;11.566;2024-02-14T11:23:20;96214.72;;;13.85;43.79
25420;BME280;13354;48.174;11.566;2024-02-14T11:25:47;96205.22;;;14.37;43.19
25420;BME280;13354;48.174;11.566;2024-02-14T11:28:17;96200.78;;;14.77;42.32
25420;BME280;13354;48.174;11.566;2024-02-14T11:30:45;96199.63;;;15.51;41.38
25420;BME280;13354;48.174;11.566;2024-02-14T11:33:23;96195.72;;;16.05;40.76
25420;BME280;13354;48.174;11.566;2024-02-14T11:35:50;96196.22;;;15.96;40.60
25420;BME280;13354;48.174;11.566;2024-02-14T11:38:19;96195.13;;;16.10;40.28
25420;BME280;13354;48.174;11.566;2024-02-14T11:40:45;96196.09;;;15.64;41.76
25420;BME280;13354;48.174;11.566;2024-02-14T11:45:38;96195.38;;;15.23;43.37
25420;BME280;13354;48.174;11.566;2024-02-14T11:48:08;96188.28;;;14.84;43.83
25420;BME280;13354;48.174;11.566;2024-02-14T11:50:33;96181.09;;;14.52;44.67
25420;BME280;13354;48.174;11.566;2024-02-14T11:52:59;96186.75;;;14.22;45.24
25420;BME280;13354;48.174;11.566;2024-02-14T11:55:30;96183.47;;;14.20;45.74
25420;BME280;13354;48.174;11.566;2024-02-14T11:57:57;96177.69;;;13.96;46.26
25420;BME280;13354;48.174;11.566;2024-02-14T12:00:23;96171.72;;;13.81;46.59
25420;BME280;13354;48.174;11.566;2024-02-14T12:02:50;96169.22;;;13.66;46.85
25420;BME280;13354;48.174;11.566;2024-02-14T12:05:17;96171.28;;;13.84;47.10
25420;BME280;13354;48.174;11.566;2024-02-14T12:07:43;96168.63;;;13.84;47.01
25420;BME280;13354;48.174;11.566;2024-02-14T12:10:09;96162.47;;;13.70;47.42
25420;BME280;13354;48.174;11.566;2024-02-14T12:12:34;96171.03;;;13.59;47.30
25420;BME280;13354;48.174;11.566;2024-02-14T12:15:02;96173.47;;;13.61;47.53
25420;BME280;13354;48.174;11.566;2024-02-14T12:17:27;96189.03;;;13.64;47.52
25420;BME280;13354;48.174;11.566;2024-02-14T12:20:05;96177.41;;;13.71;47.17
25420;BME280;13354;48.174;11.566;2024-02-14T12:22:30;96182.16;;;13.83;47.09
25420;BME280;13354;48.174;11.566;2024-02-14T12:24:56;96180.97;;;13.92;46.85
25420;BME280;13354;48.174;11.566;2024-02-14T12:27:22;96177.63;;;13.83;47.01
25420;BME280;13354;48.174;11.566;2024-02-14T12:29:48;96184.16;;;13.67;47.04
25420;BME280;13354;48.174;11.566;2024-02-14T12:32:16;96180.31;;;13.83;46.87
25420;BME280;13354;48.174;11.566;2024-02-14T12:34:44;96180.88;;;13.72;47.17
25420;BME280;13354;48.174;11.566;2024-02-14T12:37:10;96182.88;;;13.57;47.14
25420;BME280;13354;48.174;11.566;2024-02-14T12:39:36;96184.28;;;13.52;47.15
25420;BME280;13354;48.174;11.566;2024-02-14T12:42:03;96171.72;;;13.81;46.78
25420;BME280;13354;48.174;11.566;2024-02-14T12:44:29;96168.88;;;13.96;46.43
25420;BME280;13354;48.174;11.566;2024-02-14T12:46:54;96175.03;;;13.96;46.72
25420;BME280;13354;48.174;11.566;2024-02-14T12:49:20;96170.72;;;13.95;46.58
25420;BME280;13354;48.174;11.566;2024-02-14T12:51:45;96181.78;;;13.92;46.60
25420;BME280;13354;48.174;11.566;2024-02-14T12:54:11;96187.09;;;13.99;45.98
25420;BME280;13354;48.174;11.566;2024-02-14T12:56:39;96177.63;;;13.70;48.74